createdAt,value
2023-03-11T00:01:58.094Z,8.29
2023-03-11T00:04:24.755Z,8.28
2023-03-11T00:06:51.266Z,8.28
2023-03-11T00:09:17.876Z,8.25
2023-03-11T00:11:44.423Z,8.21
2023-03-11T00:14:10.930Z,8.19
2023-03-11T00:16:41.334Z,8.17
2023-03-11T00:19:07.901Z,8.13
2023-03-11T00:21:35.102Z,8.11
2023-03-11T00:24:03.725Z,8.09
2023-03-11T00:26:30.338Z,8.07
2023-03-11T00:28:56.861Z,8.05
2023-03-11T00:31:23.447Z,8.04
2023-03-11T00:33:49.989Z,8.03
2023-03-11T00:36:20.537Z,7.99
2023-03-11T00:38:47.481Z,7.96
2023-03-11T00:41:14.005Z,7.93
2023-03-11T00:43:40.558Z,7.93
2023-03-11T00:46:07.578Z,7.93
2023-03-11T00:48:34.227Z,7.95
2023-03-11T00:51:00.753Z,7.95
2023-03-11T00:53:27.293Z,7.96
2023-03-11T00:55:53.807Z,7.97
2023-03-11T00:58:20.801Z,7.98
2023-03-11T01:00:50.877Z,7.98
2023-03-11T01:03:17.426Z,8.00
2023-03-11T01:05:45.270Z,7.99
2023-03-11T01:08:11.846Z,7.99
2023-03-11T01:10:38.370Z,7.99
2023-03-11T01:13:04.982Z,8.02
2023-03-11T01:15:32.692Z,8.07
2023-03-11T01:17:59.353Z,8.12
2023-03-11T01:20:25.941Z,8.14
2023-03-11T01:22:52.548Z,8.14
2023-03-11T01:25:19.578Z,8.13
2023-03-11T01:27:46.110Z,8.12
2023-03-11T01:30:13.971Z,8.09
2023-03-11T01:32:40.528Z,8.08
2023-03-11T01:35:07.247Z,8.08
2023-03-11T01:37:33.764Z,8.09
2023-03-11T01:40:00.308Z,8.10
2023-03-11T01:42:27.454Z,8.10
2023-03-11T01:44:55.638Z,8.10
2023-03-11T01:47:34.656Z,8.12
2023-03-11T01:50:01.669Z,8.16
2023-03-11T01:52:28.462Z,8.18
2023-03-11T01:54:55.138Z,8.21
2023-03-11T01:57:22.053Z,8.25
2023-03-11T01:59:51.063Z,8.28
2023-03-11T02:02:18.881Z,8.29
2023-03-11T02:04:45.796Z,8.32
2023-03-11T02:07:12.398Z,8.36
2023-03-11T02:09:39.168Z,8.41
2023-03-11T02:12:05.997Z,8.43
2023-03-11T02:14:32.555Z,8.46
2023-03-11T02:16:59.065Z,8.46
2023-03-11T02:19:25.634Z,8.46
2023-03-11T02:21:52.234Z,8.48
2023-03-11T02:24:35.603Z,8.48
2023-03-11T02:27:03.415Z,8.52
2023-03-11T02:29:30.207Z,8.57
2023-03-11T02:31:56.949Z,8.60
2023-03-11T02:34:24.575Z,8.61
2023-03-11T02:36:51.248Z,8.61
2023-03-11T02:39:29.080Z,8.62
2023-03-11T02:41:55.652Z,8.64
2023-03-11T02:44:22.172Z,8.65
2023-03-11T02:46:49.476Z,8.66
2023-03-11T02:49:16.204Z,8.68
2023-03-11T02:51:42.733Z,8.67
2023-03-11T02:54:09.500Z,8.66
2023-03-11T02:56:36.425Z,8.66
2023-03-11T02:59:02.964Z,8.65
2023-03-11T03:01:29.619Z,8.65
2023-03-11T03:03:56.255Z,8.63
2023-03-11T03:06:22.910Z,8.62
2023-03-11T03:08:51.198Z,8.65
2023-03-11T03:11:17.799Z,8.64
2023-03-11T03:13:46.039Z,8.64
2023-03-11T03:16:12.807Z,8.65
2023-03-11T03:18:39.509Z,8.64
2023-03-11T03:21:07.315Z,8.61
2023-03-11T03:23:35.388Z,8.62
2023-03-11T03:26:02.365Z,8.61
2023-03-11T03:28:28.955Z,8.60
2023-03-11T03:30:55.531Z,8.58
2023-03-11T03:33:22.367Z,8.55
2023-03-11T03:35:49.108Z,8.52
2023-03-11T03:38:19.938Z,8.50
2023-03-11T03:40:48.019Z,8.50
2023-03-11T03:43:16.289Z,8.48
2023-03-11T03:45:44.114Z,8.46
2023-03-11T03:48:10.715Z,8.43
2023-03-11T03:50:40.944Z,8.44
2023-03-11T03:53:07.986Z,8.45
2023-03-11T03:55:34.897Z,8.46
2023-03-11T03:58:01.931Z,8.48
2023-03-11T04:00:31.538Z,8.47
2023-03-11T04:02:59.127Z,8.46
2023-03-11T04:05:32.279Z,8.43
2023-03-11T04:07:58.991Z,8.42
2023-03-11T04:10:25.544Z,8.42
2023-03-11T04:12:52.554Z,8.39
2023-03-11T04:15:19.503Z,8.35
2023-03-11T04:17:47.256Z,8.31
2023-03-11T04:20:14.437Z,8.27
2023-03-11T04:22:41.859Z,8.25
2023-03-11T04:25:08.698Z,8.27
2023-03-11T04:27:35.393Z,8.26
2023-03-11T04:30:02.421Z,8.25
2023-03-11T04:32:30.238Z,8.18
2023-03-11T04:34:57.305Z,8.12
2023-03-11T04:37:27.220Z,8.09
2023-03-11T04:39:53.833Z,8.05
2023-03-11T04:42:20.757Z,8.01
2023-03-11T04:44:47.542Z,7.96
2023-03-11T04:47:15.146Z,7.90
2023-03-11T04:49:41.944Z,7.83
2023-03-11T04:52:08.566Z,7.81
2023-03-11T04:54:35.736Z,7.80
2023-03-11T04:57:02.742Z,7.80
2023-03-11T04:59:29.458Z,7.79
2023-03-11T05:01:56.855Z,7.78
2023-03-11T05:04:23.457Z,7.77
2023-03-11T05:06:53.242Z,7.74
2023-03-11T05:09:20.396Z,7.68
2023-03-11T05:11:46.957Z,7.62
2023-03-11T05:14:14.178Z,7.54
2023-03-11T05:16:41.505Z,7.46
2023-03-11T05:19:28.057Z,7.37
2023-03-11T05:21:55.110Z,7.29
2023-03-11T05:24:22.219Z,7.20
2023-03-11T05:26:48.886Z,7.11
2023-03-11T05:29:15.919Z,7.03
2023-03-11T05:31:42.473Z,6.97
2023-03-11T05:34:09.174Z,6.91
2023-03-11T05:36:35.811Z,6.83
2023-03-11T05:39:02.685Z,6.79
2023-03-11T05:41:30.869Z,6.73
2023-03-11T05:43:57.405Z,6.66
2023-03-11T05:46:24.024Z,6.62
2023-03-11T05:48:50.680Z,6.60
2023-03-11T05:51:17.429Z,6.60
2023-03-11T05:53:48.291Z,6.58
2023-03-11T05:56:18.871Z,6.53
2023-03-11T05:58:46.111Z,6.50
2023-03-11T06:01:13.879Z,6.49
2023-03-11T06:03:40.676Z,6.45
2023-03-11T06:06:07.984Z,6.41
2023-03-11T06:08:35.595Z,6.31
2023-03-11T06:11:03.436Z,6.23
2023-03-11T06:13:30.115Z,6.14
2023-03-11T06:15:56.722Z,6.06
2023-03-11T06:18:23.949Z,6.01
2023-03-11T06:20:50.585Z,5.98
2023-03-11T06:23:17.264Z,5.94
2023-03-11T06:25:43.874Z,5.91
2023-03-11T06:28:11.269Z,5.85
2023-03-11T06:30:37.976Z,5.78
2023-03-11T06:33:08.212Z,5.72
2023-03-11T06:35:34.889Z,5.68
2023-03-11T06:38:01.500Z,5.64
2023-03-11T06:40:28.340Z,5.62
2023-03-11T06:42:54.950Z,5.58
2023-03-11T06:45:21.920Z,5.52
2023-03-11T06:47:48.790Z,5.45
2023-03-11T06:50:15.613Z,5.43
2023-03-11T06:52:42.179Z,5.41
2023-03-11T06:55:09.001Z,5.40
2023-03-11T06:57:35.995Z,5.38
2023-03-11T07:00:07.804Z,5.33
2023-03-11T07:02:34.795Z,5.25
2023-03-11T07:05:01.370Z,5.10
2023-03-11T07:07:27.978Z,5.00
2023-03-11T07:09:55.420Z,4.93
2023-03-11T07:12:23.183Z,4.87
2023-03-11T07:14:50.241Z,4.78
2023-03-11T07:17:16.789Z,4.69
2023-03-11T07:19:46.915Z,4.55
2023-03-11T07:22:13.487Z,4.43
2023-03-11T07:24:39.995Z,4.31
2023-03-11T07:27:06.519Z,4.23
2023-03-11T07:29:33.046Z,4.14
2023-03-11T07:31:59.616Z,4.11
2023-03-11T07:34:26.208Z,4.12
2023-03-11T07:36:52.821Z,4.14
2023-03-11T07:39:19.994Z,4.16
2023-03-11T07:41:46.949Z,4.17
2023-03-11T07:44:13.843Z,4.21
2023-03-11T07:46:40.383Z,4.24
2023-03-11T07:49:07.534Z,4.26
2023-03-11T07:51:34.667Z,4.26
2023-03-11T07:54:01.221Z,4.28
2023-03-11T07:56:29.358Z,4.29
2023-03-11T07:58:56.117Z,4.27
2023-03-11T08:01:23.109Z,4.25
2023-03-11T08:03:51.552Z,4.25
2023-03-11T08:06:21.684Z,4.24
2023-03-11T08:08:48.566Z,4.22
2023-03-11T08:11:15.478Z,4.21
2023-03-11T08:13:42.192Z,4.22
2023-03-11T08:16:09.623Z,4.19
2023-03-11T08:18:36.287Z,4.14
2023-03-11T08:21:06.363Z,4.12
2023-03-11T08:23:32.969Z,4.09
2023-03-11T08:25:59.716Z,4.04
2023-03-11T08:28:26.290Z,4.02
2023-03-11T08:30:53.064Z,4.02
2023-03-11T08:33:19.672Z,3.97
2023-03-11T08:35:46.659Z,3.91
2023-03-11T08:38:13.402Z,3.88
2023-03-11T08:40:39.958Z,3.85
2023-03-11T08:43:07.685Z,3.82
2023-03-11T08:45:34.326Z,3.78
2023-03-11T08:48:01.177Z,3.72
2023-03-11T08:50:28.121Z,3.65
2023-03-11T08:52:56.391Z,3.61
2023-03-11T08:55:27.766Z,3.58
2023-03-11T08:57:54.540Z,3.55
2023-03-11T09:00:21.359Z,3.48
2023-03-11T09:02:52.596Z,3.43
2023-03-11T09:05:19.281Z,3.38
2023-03-11T09:07:45.980Z,3.34
2023-03-11T09:10:14.008Z,3.30
2023-03-11T09:12:40.564Z,3.20
2023-03-11T09:15:07.307Z,3.12
2023-03-11T09:17:33.903Z,3.02
2023-03-11T09:20:00.626Z,2.90
2023-03-11T09:22:27.362Z,2.80
2023-03-11T09:24:53.946Z,2.72
2023-03-11T09:27:20.476Z,2.64
2023-03-11T09:29:46.986Z,2.51
2023-03-11T09:32:13.742Z,2.46
2023-03-11T09:34:40.330Z,2.39
2023-03-11T09:37:06.832Z,2.33
2023-03-11T09:39:33.422Z,2.29
2023-03-11T09:42:03.966Z,2.27
2023-03-11T09:44:33.108Z,2.21
2023-03-11T09:47:03.671Z,2.19
2023-03-11T09:49:38.075Z,2.12
2023-03-11T09:52:15.245Z,2.07
2023-03-11T09:54:42.696Z,2.02
2023-03-11T09:57:09.905Z,2.01
2023-03-11T09:59:36.413Z,1.97
2023-03-11T10:02:04.167Z,1.98
2023-03-11T10:04:42.128Z,1.99
2023-03-11T10:07:12.919Z,2.00
2023-03-11T10:09:50.133Z,2.01
2023-03-11T10:12:23.011Z,2.00
2023-03-11T10:15:05.928Z,1.95
2023-03-11T10:17:46.772Z,1.96
2023-03-11T10:20:16.403Z,1.97
2023-03-11T10:23:01.983Z,1.94
2023-03-11T10:25:29.237Z,1.87
2023-03-11T10:27:57.400Z,1.82
2023-03-11T10:30:42.810Z,1.81
2023-03-11T10:33:29.595Z,1.82
2023-03-11T10:35:57.098Z,1.83
2023-03-11T10:38:28.324Z,1.79
2023-03-11T10:40:55.497Z,1.71
2023-03-11T10:43:26.042Z,1.68
2023-03-11T10:45:52.623Z,1.67
2023-03-11T10:48:19.723Z,1.68
2023-03-11T10:50:49.713Z,1.68
2023-03-11T10:53:17.123Z,1.66
2023-03-11T10:55:45.984Z,1.65
2023-03-11T10:58:13.937Z,1.63
2023-03-11T11:00:40.447Z,1.58
2023-03-11T11:03:12.528Z,1.57
2023-03-11T11:05:39.164Z,1.58
2023-03-11T11:08:12.195Z,1.58
2023-03-11T11:10:38.785Z,1.62
2023-03-11T11:13:08.521Z,1.62
2023-03-11T11:15:36.103Z,1.61
2023-03-11T11:18:04.182Z,1.64
2023-03-11T11:20:31.212Z,1.65
2023-03-11T11:22:58.711Z,1.61
2023-03-11T11:25:26.438Z,1.56
2023-03-11T11:28:00.236Z,1.51
2023-03-11T11:30:26.822Z,1.45
2023-03-11T11:32:55.740Z,1.41
2023-03-11T11:35:23.527Z,1.38
2023-03-11T11:37:51.634Z,1.35
2023-03-11T11:40:19.670Z,1.33
2023-03-11T11:42:50.910Z,1.30
2023-03-11T11:45:28.726Z,1.32
2023-03-11T11:47:56.157Z,1.33
2023-03-11T11:50:25.553Z,1.31
2023-03-11T11:53:01.229Z,1.23
2023-03-11T11:55:28.285Z,1.18
2023-03-11T11:57:54.866Z,1.14
2023-03-11T12:00:26.004Z,1.13
2023-03-11T12:02:56.368Z,1.11
2023-03-11T12:05:26.431Z,1.11
2023-03-11T12:08:14.927Z,1.09
2023-03-11T12:10:44.015Z,1.07
2023-03-11T12:13:20.393Z,1.04
2023-03-11T12:15:50.846Z,1.06
2023-03-11T12:18:37.742Z,1.07
2023-03-11T12:21:10.049Z,1.13
2023-03-11T12:23:39.560Z,1.14
2023-03-11T12:26:06.136Z,1.16
2023-03-11T12:28:37.161Z,1.11
2023-03-11T12:31:05.082Z,1.03
2023-03-11T12:33:51.896Z,0.94
2023-03-11T12:36:38.827Z,0.90
2023-03-11T12:39:06.690Z,0.86
2023-03-11T12:41:36.944Z,0.89
2023-03-11T12:44:04.519Z,0.89
2023-03-11T12:47:06.401Z,0.87
2023-03-11T12:49:36.501Z,0.85
2023-03-11T12:52:03.076Z,0.83
2023-03-11T12:54:34.171Z,0.80
2023-03-11T12:57:05.729Z,0.76
2023-03-11T12:59:38.792Z,0.74
2023-03-11T13:02:12.504Z,0.70
2023-03-11T13:04:54.716Z,0.74
2023-03-11T13:07:21.297Z,0.77
2023-03-11T13:10:01.601Z,0.80
2023-03-11T13:12:38.349Z,0.84
2023-03-11T13:15:28.095Z,0.85
2023-03-11T13:18:07.894Z,0.84
2023-03-11T13:20:43.731Z,0.84
2023-03-11T13:23:10.702Z,0.83
2023-03-11T13:25:40.945Z,0.83
2023-03-11T13:28:26.407Z,0.86
2023-03-11T13:30:56.382Z,0.85
2023-03-11T13:33:25.490Z,0.83
2023-03-11T13:35:55.253Z,0.84
2023-03-11T13:38:40.483Z,0.83
2023-03-11T13:41:14.213Z,0.83
2023-03-11T13:43:44.689Z,0.85
2023-03-11T13:46:19.388Z,0.86
2023-03-11T13:48:46.925Z,0.90
2023-03-11T13:51:20.782Z,0.92
2023-03-11T13:53:48.046Z,0.87
2023-03-11T13:56:25.911Z,0.85
2023-03-11T13:58:52.468Z,0.87
2023-03-11T14:01:19.059Z,0.89
2023-03-11T14:03:46.382Z,0.92
2023-03-11T14:06:19.298Z,0.91
2023-03-11T14:08:53.020Z,0.89
2023-03-11T14:11:20.470Z,0.91
2023-03-11T14:13:48.015Z,0.90
2023-03-11T14:16:28.870Z,0.93
2023-03-11T14:19:01.189Z,0.98
2023-03-11T14:21:28.000Z,1.01
2023-03-11T14:23:55.233Z,1.06
2023-03-11T14:26:26.368Z,1.10
2023-03-11T14:28:53.721Z,1.13
2023-03-11T14:31:25.485Z,1.13
2023-03-11T14:34:04.297Z,1.12
2023-03-11T14:36:32.942Z,1.09
2023-03-11T14:38:59.438Z,1.08
2023-03-11T14:41:25.958Z,1.04
2023-03-11T14:43:52.686Z,1.01
2023-03-11T14:46:23.187Z,0.97
2023-03-11T14:48:49.915Z,0.93
2023-03-11T14:51:36.724Z,0.90
2023-03-11T14:54:07.056Z,0.87
2023-03-11T14:56:34.420Z,0.86
2023-03-11T14:59:08.418Z,0.87
2023-03-11T15:01:40.641Z,0.85
2023-03-11T15:04:09.485Z,0.83
2023-03-11T15:06:36.072Z,0.80
2023-03-11T15:09:05.268Z,0.81
2023-03-11T15:11:32.981Z,0.80
2023-03-11T15:14:29.123Z,0.85
2023-03-11T15:16:56.096Z,0.92
2023-03-11T15:19:25.747Z,0.92
2023-03-11T15:21:54.544Z,0.94
2023-03-11T15:24:22.600Z,0.98
2023-03-11T15:26:56.329Z,1.00
2023-03-11T15:29:23.168Z,1.04
2023-03-11T15:31:50.122Z,1.10
2023-03-11T15:34:16.717Z,1.14
2023-03-11T15:36:49.129Z,1.18
2023-03-11T15:39:17.680Z,1.22
2023-03-11T15:41:45.213Z,1.25
2023-03-11T15:44:20.767Z,1.22
2023-03-11T15:46:47.464Z,1.17
2023-03-11T15:49:13.981Z,1.17
2023-03-11T15:51:40.536Z,1.18
2023-03-11T15:54:07.052Z,1.14
2023-03-11T15:56:33.695Z,1.11
2023-03-11T15:59:00.319Z,1.09
2023-03-11T16:01:28.689Z,1.11
2023-03-11T16:03:55.439Z,1.14
2023-03-11T16:06:22.918Z,1.17
2023-03-11T16:08:49.709Z,1.19
2023-03-11T16:11:16.258Z,1.17
2023-03-11T16:13:42.899Z,1.17
2023-03-11T16:16:16.085Z,1.18
2023-03-11T16:18:42.864Z,1.19
2023-03-11T16:21:18.859Z,1.19
2023-03-11T16:23:51.915Z,1.21
2023-03-11T16:26:18.957Z,1.21
2023-03-11T16:28:45.542Z,1.21
2023-03-11T16:31:12.250Z,1.21
2023-03-11T16:33:38.850Z,1.21
2023-03-11T16:36:05.679Z,1.20
2023-03-11T16:38:32.286Z,1.14
2023-03-11T16:40:59.610Z,1.07
2023-03-11T16:43:26.897Z,1.01
2023-03-11T16:45:56.333Z,1.01
2023-03-11T16:48:23.032Z,1.00
2023-03-11T16:50:49.631Z,0.99
2023-03-11T16:53:17.621Z,1.00
2023-03-11T16:55:44.827Z,1.00
2023-03-11T16:58:11.786Z,1.00
2023-03-11T17:00:38.398Z,1.00
2023-03-11T17:03:04.981Z,0.98
2023-03-11T17:05:31.530Z,0.97
2023-03-11T17:08:01.123Z,0.96
2023-03-11T17:10:28.798Z,0.96
2023-03-11T17:12:55.635Z,0.96
2023-03-11T17:15:22.200Z,0.97
2023-03-11T17:17:50.809Z,0.95
2023-03-11T17:20:19.324Z,0.92
2023-03-11T17:22:47.169Z,0.90
2023-03-11T17:25:13.741Z,0.86
2023-03-11T17:27:40.299Z,0.84
2023-03-11T17:30:07.196Z,0.82
2023-03-11T17:32:33.831Z,0.81
2023-03-11T17:35:00.869Z,0.79
2023-03-11T17:37:27.400Z,0.79
2023-03-11T17:39:53.921Z,0.80
2023-03-11T17:42:20.584Z,0.82
2023-03-11T17:44:51.750Z,0.81
2023-03-11T17:47:20.840Z,0.82
2023-03-11T17:49:47.875Z,0.82
2023-03-11T17:52:14.551Z,0.81
2023-03-11T17:54:41.089Z,0.79
2023-03-11T17:57:07.661Z,0.75
2023-03-11T17:59:34.162Z,0.72
2023-03-11T18:02:00.848Z,0.71
2023-03-11T18:04:27.642Z,0.68
2023-03-11T18:06:54.672Z,0.68
2023-03-11T18:09:21.214Z,0.66
2023-03-11T18:11:47.804Z,0.64
2023-03-11T18:14:14.648Z,0.62
2023-03-11T18:16:41.313Z,0.60
2023-03-11T18:19:07.884Z,0.57
2023-03-11T18:21:34.482Z,0.52
2023-03-11T18:24:01.145Z,0.49
2023-03-11T18:26:28.162Z,0.46
2023-03-11T18:28:55.097Z,0.45
2023-03-11T18:31:22.422Z,0.45
2023-03-11T18:34:14.194Z,0.45
2023-03-11T18:36:41.412Z,0.46
2023-03-11T18:39:11.283Z,0.47
2023-03-11T18:41:37.928Z,0.48
2023-03-11T18:44:04.649Z,0.47
2023-03-11T18:46:31.771Z,0.45
2023-03-11T18:48:58.828Z,0.43
2023-03-11T18:51:26.025Z,0.43
2023-03-11T18:53:52.629Z,0.42
2023-03-11T18:56:19.141Z,0.40
2023-03-11T18:58:45.852Z,0.38
2023-03-11T19:01:14.317Z,0.36
2023-03-11T19:03:41.659Z,0.37
2023-03-11T19:06:09.432Z,0.37
2023-03-11T19:08:36.086Z,0.37
2023-03-11T19:11:08.915Z,0.34
2023-03-11T19:13:46.261Z,0.31
2023-03-11T19:16:14.478Z,0.30
2023-03-11T19:18:41.050Z,0.28
2023-03-11T19:21:07.919Z,0.26
2023-03-11T19:23:34.533Z,0.26
2023-03-11T19:26:03.459Z,0.25
2023-03-11T19:28:30.358Z,0.23
2023-03-11T19:30:57.175Z,0.25
2023-03-11T19:33:24.468Z,0.25
2023-03-11T19:35:51.741Z,0.27
2023-03-11T19:38:18.531Z,0.28
2023-03-11T19:40:45.406Z,0.30
2023-03-11T19:43:13.813Z,0.33
2023-03-11T19:45:40.440Z,0.36
2023-03-11T19:48:07.021Z,0.40
2023-03-11T19:50:33.730Z,0.41
2023-03-11T19:53:00.493Z,0.41
2023-03-11T19:55:27.198Z,0.41
2023-03-11T19:57:53.770Z,0.42
2023-03-11T20:00:20.672Z,0.42
2023-03-11T20:02:47.278Z,0.44
2023-03-11T20:05:14.016Z,0.45
2023-03-11T20:07:40.727Z,0.47
2023-03-11T20:10:07.568Z,0.49
2023-03-11T20:12:34.483Z,0.50
2023-03-11T20:15:01.234Z,0.51
2023-03-11T20:17:27.803Z,0.51
2023-03-11T20:19:54.384Z,0.51
2023-03-11T20:22:21.082Z,0.51
2023-03-11T20:24:47.618Z,0.53
2023-03-11T20:27:15.260Z,0.57
2023-03-11T20:29:42.032Z,0.61
2023-03-11T20:32:08.733Z,0.63
2023-03-11T20:34:35.331Z,0.63
2023-03-11T20:37:02.994Z,0.64
2023-03-11T20:39:30.383Z,0.66
2023-03-11T20:41:57.072Z,0.68
2023-03-11T20:44:24.321Z,0.68
2023-03-11T20:46:51.158Z,0.66
2023-03-11T20:49:18.210Z,0.66
2023-03-11T20:51:48.204Z,0.67
2023-03-11T20:54:15.252Z,0.66
2023-03-11T20:56:42.741Z,0.66
2023-03-11T20:59:10.247Z,0.65
2023-03-11T21:01:37.159Z,0.65
2023-03-11T21:04:04.076Z,0.65
2023-03-11T21:06:35.075Z,0.67
2023-03-11T21:09:02.380Z,0.66
2023-03-11T21:11:29.231Z,0.67
2023-03-11T21:13:55.937Z,0.67
2023-03-11T21:16:23.772Z,0.66
2023-03-11T21:18:50.823Z,0.64
2023-03-11T21:21:17.837Z,0.63
2023-03-11T21:23:45.167Z,0.63
2023-03-11T21:26:12.573Z,0.63
2023-03-11T21:28:40.229Z,0.62
2023-03-11T21:31:08.027Z,0.63
2023-03-11T21:33:35.081Z,0.63
2023-03-11T21:36:01.873Z,0.64
2023-03-11T21:38:29.010Z,0.64
2023-03-11T21:41:24.591Z,0.63
2023-03-11T21:43:51.483Z,0.61
2023-03-11T21:46:19.263Z,0.58
2023-03-11T21:48:48.647Z,0.56
2023-03-11T21:51:15.910Z,0.51
2023-03-11T21:53:42.878Z,0.48
2023-03-11T21:56:10.297Z,0.45
2023-03-11T21:58:37.122Z,0.42
2023-03-11T22:01:03.979Z,0.40
2023-03-11T22:03:31.177Z,0.37
2023-03-11T22:05:58.410Z,0.34
2023-03-11T22:08:25.172Z,0.32
2023-03-11T22:10:51.955Z,0.32
2023-03-11T22:13:18.558Z,0.33
2023-03-11T22:15:45.341Z,0.35
2023-03-11T22:18:12.142Z,0.34
2023-03-11T22:20:41.981Z,0.33
2023-03-11T22:23:35.065Z,0.31
2023-03-11T22:26:01.708Z,0.28
2023-03-11T22:28:28.308Z,0.24
2023-03-11T22:30:54.926Z,0.25
2023-03-11T22:33:21.546Z,0.26
2023-03-11T22:35:51.903Z,0.29
2023-03-11T22:38:18.521Z,0.29
2023-03-11T22:40:45.090Z,0.29
2023-03-11T22:43:11.638Z,0.28
2023-03-11T22:45:38.492Z,0.28
2023-03-11T22:48:07.424Z,0.29
2023-03-11T22:50:34.008Z,0.30
2023-03-11T22:53:00.957Z,0.32
2023-03-11T22:55:27.488Z,0.32
2023-03-11T22:57:54.194Z,0.31
2023-03-11T23:00:21.332Z,0.29
2023-03-11T23:02:48.408Z,0.27
2023-03-11T23:05:15.347Z,0.27
2023-03-11T23:07:42.026Z,0.28
2023-03-11T23:10:09.463Z,0.27
2023-03-11T23:12:36.311Z,0.25
2023-03-11T23:15:03.874Z,0.24
2023-03-11T23:17:30.517Z,0.25
2023-03-11T23:19:57.108Z,0.25
2023-03-11T23:22:24.650Z,0.25
2023-03-11T23:24:51.231Z,0.22
2023-03-11T23:27:17.760Z,0.20
2023-03-11T23:29:44.417Z,0.20
2023-03-11T23:32:11.159Z,0.18
2023-03-11T23:34:37.787Z,0.15
2023-03-11T23:37:05.533Z,0.12
2023-03-11T23:39:32.137Z,0.09
2023-03-11T23:41:58.674Z,0.07
2023-03-11T23:44:25.297Z,0.07
2023-03-11T23:46:51.820Z,0.08
2023-03-11T23:49:18.354Z,0.10
2023-03-11T23:51:44.921Z,0.11
2023-03-11T23:54:11.561Z,0.11
2023-03-11T23:56:38.169Z,0.10
2023-03-11T23:59:05.036Z,0.10
